Aérodrome :
LOGIN :

S'inscrire | Disclaimer

   EN    FR    IT 

 










Légende :    VFR   VFR Marginal   IFR   IFR Intensif   IFR Très Intensif
Visi : 
Plafond : 
>= 8 km
>= 3000ft
5 à 8 km
1000 à 3000 ft
1500m à 5 km
500 à 1000 ft
800 à 1500m
200 à 500 ft
< 800m
< 200 ft
Symboles :   Orages  Brouillard  Fortes neiges  Fortes précipitations  Vent > 20 kt
SIGMETs :   Divers  Orages  Givrage  Turbulence  Onde Orograph.  Cendres Volcan.







- Altitude de l'aérodrome : 2031 ft


LEGT - Madrid Getafe

DERNIER METAR :
  • 252000Z 24011KT 9999 FEW049 19/09 Q1007

METARs EXPIRÉS :
  • 251900Z 24014KT 9999 FEW049CB 19/09 Q1007
  • 251800Z 29012KT 9999 FEW045 SCT049CB 20/08 Q1007

TAF TAF LEGT
Valide du 25 à 18h jusqu'au 26 à 03h UTC


251700Z 2518/2603 23012KT 9999 FEW040
PROB30
TEMPO 2518/2519 23020G30KT
BECMG 2521/2523 VRB05KT
Pas de NOTAMs connus pour ce terrain.



MET'MAP, la Météo Aéronautique d'un coup d'oeil ! - Copyright ORBIFLY Décembre 2007 - Disclaimer

ORBIFLY MET'MAP TEAM :

Programmation & Développement : Alexandra Zaïnal
Conception & Développement : Baudouin d'Aumeries
Co-Programmation & Développement : Marc-Olivier Méhu
Soutien technique & logistique : Manuel Goepfert

Contact : metmap@orbifly.com




SOURCES & CREDITS :

   NOAA